DAL2399 KLAX-KDTW
Flight info
| Callsign | DAL2399 |
|---|---|
| Flight time | 3h 52m |
| Altitude | 35000 |
| Route | ORCKA5 LAS J146 DVC BRK KD60A LNK/N0449F370 OVR DSM CID PLL SAMPL VCTRZ2 |
| Aircraft | B739/M-SDE2E3FGHIRWXY/LB1 |
Departure
| Time | 2026-05-07 12:11 |
|---|---|
| Airport | Los Angeles International Airport (KLAX) |
Arrival
| Time | 2026-05-07 16:04 |
|---|---|
| Airport | Detroit Metropolitan Wayne County Airport (KDTW) |
| Time | Latitude | Longitude | Altitude | Speed | Heading |
|---|---|---|---|---|---|
| 2026-05-07 11:50 | 33.94730 | -118.40443 | 92 ft | 0 kts | 163° |
| 2026-05-07 12:02 | 33.94734 | -118.40444 | 101 ft | 3 kts | 163° |
| 2026-05-07 12:02 | 33.94759 | -118.40453 | 91 ft | 2 kts | 163° |
| 2026-05-07 12:03 | 33.94779 | -118.40462 | 92 ft | 4 kts | 138° |
| 2026-05-07 12:03 | 33.94791 | -118.40486 | 91 ft | 4 kts | 85° |
| 2026-05-07 12:03 | 33.94788 | -118.40515 | 92 ft | 3 kts | 82° |
| 2026-05-07 12:03 | 33.94787 | -118.40519 | 92 ft | 0 kts | 82° |
| 2026-05-07 12:08 | 33.94789 | -118.40507 | 92 ft | 4 kts | 82° |
| 2026-05-07 12:08 | 33.94795 | -118.40450 | 94 ft | 10 kts | 82° |
| 2026-05-07 12:08 | 33.94806 | -118.40346 | 92 ft | 14 kts | 82° |
| 2026-05-07 12:09 | 33.94875 | -118.40286 | 93 ft | 13 kts | 24° |
| 2026-05-07 12:09 | 33.94905 | -118.40189 | 95 ft | 13 kts | 83° |
| 2026-05-07 12:09 | 33.94916 | -118.40085 | 94 ft | 12 kts | 83° |
| 2026-05-07 12:09 | 33.94926 | -118.39983 | 92 ft | 12 kts | 83° |
| 2026-05-07 12:10 | 33.94974 | -118.39912 | 94 ft | 12 kts | 11° |
| 2026-05-07 12:10 | 33.95038 | -118.39928 | 93 ft | 8 kts | 302° |
| 2026-05-07 12:10 | 33.95038 | -118.39992 | 95 ft | 8 kts | 263° |
| 2026-05-07 12:10 | 33.95023 | -118.40140 | 96 ft | 44 kts | 263° |
| 2026-05-07 12:11 | 33.94955 | -118.40801 | 98 ft | 114 kts | 263° |
| 2026-05-07 12:11 | 33.94833 | -118.41991 | 97 ft | 170 kts | 263° |
| 2026-05-07 12:11 | 33.94675 | -118.43492 | 526 ft | 184 kts | 262° |
| 2026-05-07 12:11 | 33.94506 | -118.45002 | 1262 ft | 187 kts | 263° |
| 2026-05-07 12:12 | 33.94349 | -118.46646 | 1614 ft | 209 kts | 263° |
| 2026-05-07 12:12 | 33.94153 | -118.48480 | 1824 ft | 232 kts | 263° |
| 2026-05-07 12:12 | 33.93850 | -118.50432 | 2276 ft | 242 kts | 248° |
| 2026-05-07 12:12 | 33.92856 | -118.52051 | 2943 ft | 244 kts | 216° |
| 2026-05-07 12:13 | 33.91302 | -118.52845 | 3637 ft | 248 kts | 186° |
| 2026-05-07 12:13 | 33.89584 | -118.52614 | 4246 ft | 254 kts | 158° |
| 2026-05-07 12:13 | 33.87969 | -118.51708 | 4903 ft | 259 kts | 152° |
| 2026-05-07 12:13 | 33.86467 | -118.50500 | 5547 ft | 261 kts | 131° |
| 2026-05-07 12:14 | 33.85587 | -118.48637 | 6289 ft | 256 kts | 102° |
| 2026-05-07 12:14 | 33.85565 | -118.46528 | 6979 ft | 254 kts | 73° |
| 2026-05-07 12:14 | 33.86386 | -118.44653 | 7488 ft | 263 kts | 48° |
| 2026-05-07 12:14 | 33.87764 | -118.43122 | 7878 ft | 275 kts | 40° |
| 2026-05-07 12:15 | 33.89253 | -118.41638 | 8532 ft | 279 kts | 40° |
| 2026-05-07 12:15 | 33.90754 | -118.40156 | 9290 ft | 279 kts | 40° |
| 2026-05-07 12:15 | 33.92253 | -118.38666 | 10033 ft | 280 kts | 41° |
| 2026-05-07 12:15 | 33.93771 | -118.37144 | 10483 ft | 292 kts | 41° |
| 2026-05-07 12:16 | 33.95388 | -118.35509 | 10631 ft | 314 kts | 41° |
| 2026-05-07 12:16 | 33.97111 | -118.33759 | 10784 ft | 334 kts | 41° |
| 2026-05-07 12:16 | 33.98930 | -118.31909 | 11040 ft | 349 kts | 41° |
| 2026-05-07 12:16 | 34.00747 | -118.29936 | 11555 ft | 353 kts | 47° |
| 2026-05-07 12:17 | 34.02264 | -118.27611 | 12190 ft | 354 kts | 56° |
| 2026-05-07 12:17 | 34.03640 | -118.25144 | 12820 ft | 356 kts | 56° |
| 2026-05-07 12:17 | 34.05025 | -118.22650 | 13399 ft | 359 kts | 56° |
| 2026-05-07 12:17 | 34.06426 | -118.20140 | 13982 ft | 362 kts | 56° |
| 2026-05-07 12:18 | 34.07844 | -118.17615 | 14532 ft | 365 kts | 56° |
| 2026-05-07 12:18 | 34.09276 | -118.15078 | 15065 ft | 367 kts | 55° |
| 2026-05-07 12:18 | 34.10719 | -118.12524 | 15581 ft | 370 kts | 55° |
| 2026-05-07 12:18 | 34.12176 | -118.09946 | 16090 ft | 373 kts | 55° |
| 2026-05-07 12:19 | 34.13639 | -118.07353 | 16599 ft | 376 kts | 55° |
| 2026-05-07 12:19 | 34.15096 | -118.04770 | 17108 ft | 378 kts | 54° |
| 2026-05-07 12:19 | 34.16582 | -118.02133 | 17608 ft | 381 kts | 54° |
| 2026-05-07 12:19 | 34.18077 | -117.99477 | 18099 ft | 384 kts | 54° |
| 2026-05-07 12:20 | 34.19584 | -117.96799 | 18514 ft | 387 kts | 54° |
| 2026-05-07 12:20 | 34.21102 | -117.94098 | 18939 ft | 389 kts | 54° |
| 2026-05-07 12:20 | 34.22623 | -117.91388 | 19356 ft | 390 kts | 54° |
| 2026-05-07 12:20 | 34.24150 | -117.88666 | 19787 ft | 393 kts | 54° |
| 2026-05-07 12:21 | 34.25691 | -117.85919 | 20186 ft | 396 kts | 54° |
| 2026-05-07 12:21 | 34.27238 | -117.83156 | 20613 ft | 398 kts | 54° |
| 2026-05-07 12:21 | 34.28794 | -117.80377 | 21028 ft | 400 kts | 54° |
| 2026-05-07 12:21 | 34.30360 | -117.77577 | 21441 ft | 403 kts | 54° |
| 2026-05-07 12:22 | 34.31934 | -117.74762 | 21839 ft | 405 kts | 54° |
| 2026-05-07 12:22 | 34.33518 | -117.71927 | 22241 ft | 408 kts | 54° |
| 2026-05-07 12:22 | 34.35112 | -117.69072 | 22633 ft | 411 kts | 54° |
| 2026-05-07 12:22 | 34.36750 | -117.66231 | 23016 ft | 413 kts | 52° |
| 2026-05-07 12:23 | 34.38437 | -117.63409 | 23414 ft | 415 kts | 52° |
| 2026-05-07 12:23 | 34.40144 | -117.60582 | 23780 ft | 417 kts | 52° |
| 2026-05-07 12:23 | 34.41860 | -117.57742 | 24116 ft | 419 kts | 52° |
| 2026-05-07 12:23 | 34.43582 | -117.54882 | 24449 ft | 421 kts | 52° |
| 2026-05-07 12:24 | 34.45304 | -117.52009 | 24767 ft | 423 kts | 52° |
| 2026-05-07 12:24 | 34.47036 | -117.49111 | 25164 ft | 425 kts | 52° |
| 2026-05-07 12:24 | 34.48769 | -117.46201 | 25514 ft | 427 kts | 52° |
| 2026-05-07 12:24 | 34.50510 | -117.43273 | 25872 ft | 428 kts | 52° |
| 2026-05-07 12:25 | 34.52253 | -117.40338 | 26203 ft | 430 kts | 52° |
| 2026-05-07 12:25 | 34.54004 | -117.37387 | 26514 ft | 432 kts | 52° |
| 2026-05-07 12:25 | 34.55762 | -117.34420 | 26819 ft | 434 kts | 52° |
| 2026-05-07 12:25 | 34.57528 | -117.31440 | 27114 ft | 436 kts | 52° |
| 2026-05-07 12:26 | 34.59301 | -117.28445 | 27407 ft | 438 kts | 52° |
| 2026-05-07 12:26 | 34.61079 | -117.25439 | 27683 ft | 440 kts | 52° |
| 2026-05-07 12:26 | 34.62865 | -117.22415 | 27957 ft | 441 kts | 52° |
| 2026-05-07 12:26 | 34.64660 | -117.19375 | 28228 ft | 443 kts | 52° |
| 2026-05-07 12:27 | 34.66459 | -117.16326 | 28443 ft | 445 kts | 52° |
| 2026-05-07 12:27 | 34.68262 | -117.13268 | 28779 ft | 445 kts | 52° |
| 2026-05-07 12:27 | 34.70060 | -117.10213 | 29210 ft | 444 kts | 52° |
| 2026-05-07 12:27 | 34.71851 | -117.07168 | 29686 ft | 441 kts | 52° |
| 2026-05-07 12:28 | 34.73632 | -117.04137 | 30128 ft | 440 kts | 52° |
| 2026-05-07 12:28 | 34.75411 | -117.01110 | 30464 ft | 440 kts | 52° |
| 2026-05-07 12:28 | 34.77185 | -116.98087 | 30760 ft | 440 kts | 52° |
| 2026-05-07 12:28 | 34.78962 | -116.95058 | 31054 ft | 440 kts | 52° |
| 2026-05-07 12:29 | 34.80737 | -116.92027 | 31374 ft | 439 kts | 52° |
| 2026-05-07 12:29 | 34.81911 | -116.90023 | 31585 ft | 439 kts | 52° |
| 2026-05-07 12:29 | 34.83680 | -116.86998 | 31885 ft | 439 kts | 52° |
| 2026-05-07 12:29 | 34.85448 | -116.83974 | 32196 ft | 438 kts | 52° |
| 2026-05-07 12:30 | 34.87212 | -116.80953 | 32525 ft | 437 kts | 52° |
| 2026-05-07 12:30 | 34.88969 | -116.77942 | 32834 ft | 436 kts | 51° |
| 2026-05-07 12:30 | 34.90724 | -116.74933 | 33096 ft | 436 kts | 51° |
| 2026-05-07 12:30 | 34.92520 | -116.71964 | 33350 ft | 434 kts | 47° |
| 2026-05-07 12:31 | 34.94509 | -116.69209 | 33616 ft | 432 kts | 44° |
| 2026-05-07 12:31 | 34.96555 | -116.66542 | 33890 ft | 431 kts | 44° |
| 2026-05-07 12:31 | 34.98619 | -116.63895 | 34126 ft | 430 kts | 43° |
| 2026-05-07 12:31 | 35.00680 | -116.61248 | 34314 ft | 430 kts | 43° |
| 2026-05-07 12:32 | 35.02734 | -116.58590 | 34481 ft | 431 kts | 44° |
| 2026-05-07 12:32 | 35.04780 | -116.55922 | 34680 ft | 431 kts | 44° |
| 2026-05-07 12:32 | 35.06814 | -116.53251 | 34923 ft | 429 kts | 44° |
| 2026-05-07 12:33 | 35.12911 | -116.45196 | 35006 ft | 431 kts | 44° |
| 2026-05-07 12:33 | 35.16956 | -116.39832 | 35043 ft | 428 kts | 44° |
| 2026-05-07 12:34 | 35.20978 | -116.34494 | 35036 ft | 426 kts | 44° |
| 2026-05-07 12:34 | 35.24954 | -116.29210 | 35035 ft | 424 kts | 44° |
| 2026-05-07 12:35 | 35.28950 | -116.23891 | 35031 ft | 425 kts | 44° |
| 2026-05-07 12:35 | 35.32948 | -116.18560 | 35024 ft | 425 kts | 44° |
| 2026-05-07 12:36 | 35.36958 | -116.13207 | 35033 ft | 427 kts | 44° |
| 2026-05-07 12:36 | 35.40972 | -116.07838 | 35033 ft | 428 kts | 44° |
| 2026-05-07 12:37 | 35.44995 | -116.02449 | 35034 ft | 429 kts | 44° |
| 2026-05-07 12:37 | 35.49028 | -115.97038 | 35050 ft | 430 kts | 44° |
| 2026-05-07 12:38 | 35.53067 | -115.91608 | 35053 ft | 431 kts | 45° |
| 2026-05-07 12:38 | 35.57113 | -115.86161 | 35072 ft | 432 kts | 45° |
| 2026-05-07 12:39 | 35.61158 | -115.80707 | 35067 ft | 432 kts | 45° |
| 2026-05-07 12:39 | 35.65192 | -115.75242 | 35082 ft | 431 kts | 45° |
| 2026-05-07 12:40 | 35.69165 | -115.69787 | 35088 ft | 431 kts | 45° |
| 2026-05-07 12:40 | 35.73155 | -115.64291 | 35091 ft | 430 kts | 45° |
| 2026-05-07 12:41 | 35.77142 | -115.58798 | 35097 ft | 430 kts | 45° |
| 2026-05-07 12:41 | 35.81119 | -115.53313 | 35096 ft | 429 kts | 45° |
| 2026-05-07 12:42 | 35.85087 | -115.47832 | 35096 ft | 428 kts | 46° |
| 2026-05-07 12:42 | 35.89045 | -115.42356 | 35103 ft | 427 kts | 46° |
| 2026-05-07 12:43 | 35.92996 | -115.36880 | 35110 ft | 427 kts | 46° |
| 2026-05-07 12:43 | 35.96947 | -115.31394 | 35100 ft | 428 kts | 46° |
| 2026-05-07 12:44 | 36.00901 | -115.25896 | 35110 ft | 428 kts | 46° |
| 2026-05-07 12:44 | 36.04854 | -115.20392 | 35093 ft | 428 kts | 46° |
| 2026-05-07 12:45 | 36.08404 | -115.14472 | 35093 ft | 432 kts | 59° |
| 2026-05-07 12:45 | 36.10664 | -115.07609 | 35098 ft | 435 kts | 67° |
| 2026-05-07 12:46 | 36.12744 | -115.00576 | 35047 ft | 436 kts | 67° |
| 2026-05-07 12:46 | 36.14865 | -114.93555 | 35031 ft | 436 kts | 66° |
| 2026-05-07 12:47 | 36.17007 | -114.86529 | 35016 ft | 436 kts | 66° |
| 2026-05-07 12:47 | 36.19147 | -114.79503 | 35010 ft | 436 kts | 66° |
| 2026-05-07 12:48 | 36.21300 | -114.72494 | 34994 ft | 435 kts | 66° |
| 2026-05-07 12:48 | 36.23449 | -114.65491 | 34981 ft | 434 kts | 66° |
| 2026-05-07 12:49 | 36.25591 | -114.58488 | 34953 ft | 434 kts | 66° |
| 2026-05-07 12:49 | 36.27723 | -114.51493 | 34953 ft | 433 kts | 66° |
| 2026-05-07 12:50 | 36.29834 | -114.44549 | 34957 ft | 433 kts | 66° |
| 2026-05-07 12:50 | 36.31955 | -114.37552 | 34960 ft | 433 kts | 67° |
| 2026-05-07 12:51 | 36.34068 | -114.30566 | 34963 ft | 432 kts | 67° |
| 2026-05-07 12:51 | 36.36176 | -114.23583 | 34965 ft | 432 kts | 67° |
| 2026-05-07 12:52 | 36.38250 | -114.16693 | 34968 ft | 431 kts | 67° |
| 2026-05-07 12:52 | 36.40347 | -114.09708 | 34971 ft | 431 kts | 67° |
| 2026-05-07 12:53 | 36.42251 | -114.03350 | 34981 ft | 431 kts | 67° |
| 2026-05-07 12:53 | 36.44334 | -113.96381 | 34995 ft | 430 kts | 67° |
| 2026-05-07 12:54 | 36.46412 | -113.89412 | 34997 ft | 430 kts | 67° |
| 2026-05-07 12:54 | 36.48483 | -113.82448 | 35014 ft | 430 kts | 67° |
| 2026-05-07 12:55 | 36.50549 | -113.75482 | 35009 ft | 430 kts | 67° |
| 2026-05-07 12:55 | 36.52613 | -113.68509 | 35024 ft | 430 kts | 67° |
| 2026-05-07 12:56 | 36.54674 | -113.61525 | 35040 ft | 430 kts | 67° |
| 2026-05-07 12:56 | 36.56732 | -113.54533 | 35037 ft | 431 kts | 67° |
| 2026-05-07 12:57 | 36.58774 | -113.47581 | 35058 ft | 431 kts | 67° |
| 2026-05-07 12:57 | 36.60827 | -113.40571 | 35058 ft | 431 kts | 67° |
| 2026-05-07 12:58 | 36.62881 | -113.33543 | 35073 ft | 432 kts | 67° |
| 2026-05-07 12:58 | 36.64921 | -113.26501 | 35075 ft | 433 kts | 67° |
| 2026-05-07 12:59 | 36.66956 | -113.19444 | 35109 ft | 433 kts | 67° |
| 2026-05-07 12:59 | 36.68989 | -113.12378 | 35136 ft | 433 kts | 67° |
| 2026-05-07 13:00 | 36.71018 | -113.05308 | 35159 ft | 434 kts | 68° |
| 2026-05-07 13:00 | 36.73046 | -112.98228 | 35174 ft | 434 kts | 68° |
| 2026-05-07 13:01 | 36.75070 | -112.91140 | 35182 ft | 434 kts | 68° |
| 2026-05-07 13:01 | 36.77090 | -112.84050 | 35179 ft | 434 kts | 68° |
| 2026-05-07 13:02 | 36.79109 | -112.76946 | 35170 ft | 434 kts | 68° |
| 2026-05-07 13:02 | 36.81124 | -112.69836 | 35151 ft | 435 kts | 68° |
| 2026-05-07 13:03 | 36.83135 | -112.62721 | 35137 ft | 435 kts | 68° |
| 2026-05-07 13:03 | 36.85142 | -112.55602 | 35126 ft | 435 kts | 68° |
| 2026-05-07 13:04 | 36.87145 | -112.48478 | 35127 ft | 435 kts | 68° |
| 2026-05-07 13:04 | 36.89146 | -112.41350 | 35131 ft | 435 kts | 68° |
| 2026-05-07 13:05 | 36.91149 | -112.34216 | 35125 ft | 435 kts | 68° |
| 2026-05-07 13:05 | 36.93138 | -112.27127 | 35126 ft | 435 kts | 68° |
| 2026-05-07 13:06 | 36.95137 | -112.19983 | 35127 ft | 435 kts | 68° |
| 2026-05-07 13:06 | 36.97133 | -112.12830 | 35131 ft | 436 kts | 68° |
| 2026-05-07 13:07 | 36.99124 | -112.05674 | 35117 ft | 436 kts | 68° |
| 2026-05-07 13:07 | 37.01111 | -111.98511 | 35126 ft | 436 kts | 68° |
| 2026-05-07 13:08 | 37.03095 | -111.91344 | 35115 ft | 436 kts | 68° |
| 2026-05-07 13:08 | 37.05077 | -111.84163 | 35112 ft | 436 kts | 68° |
| 2026-05-07 13:09 | 37.07053 | -111.76982 | 35104 ft | 436 kts | 68° |
| 2026-05-07 13:09 | 37.09029 | -111.69785 | 35101 ft | 437 kts | 68° |
| 2026-05-07 13:10 | 37.11000 | -111.62582 | 35097 ft | 437 kts | 68° |
| 2026-05-07 13:10 | 37.12967 | -111.55378 | 35156 ft | 437 kts | 68° |
| 2026-05-07 13:11 | 37.14931 | -111.48163 | 35149 ft | 437 kts | 68° |
| 2026-05-07 13:11 | 37.16890 | -111.40949 | 35140 ft | 437 kts | 68° |
| 2026-05-07 13:12 | 37.18842 | -111.33736 | 35119 ft | 437 kts | 68° |
| 2026-05-07 13:12 | 37.20780 | -111.26562 | 35108 ft | 437 kts | 68° |
| 2026-05-07 13:13 | 37.22724 | -111.19344 | 35092 ft | 437 kts | 68° |
| 2026-05-07 13:13 | 37.24663 | -111.12118 | 35111 ft | 437 kts | 68° |
| 2026-05-07 13:14 | 37.26599 | -111.04882 | 35101 ft | 437 kts | 68° |
| 2026-05-07 13:14 | 37.28534 | -110.97635 | 35113 ft | 438 kts | 68° |
| 2026-05-07 13:15 | 37.30466 | -110.90373 | 35112 ft | 438 kts | 68° |
| 2026-05-07 13:15 | 37.32394 | -110.83109 | 35132 ft | 438 kts | 68° |
| 2026-05-07 13:16 | 37.34319 | -110.75835 | 35126 ft | 439 kts | 68° |
| 2026-05-07 13:16 | 37.36238 | -110.68561 | 35147 ft | 439 kts | 68° |
| 2026-05-07 13:17 | 37.38156 | -110.61273 | 35148 ft | 439 kts | 68° |
| 2026-05-07 13:17 | 37.40072 | -110.53969 | 35155 ft | 440 kts | 68° |
| 2026-05-07 13:18 | 37.41983 | -110.46664 | 35159 ft | 440 kts | 68° |
| 2026-05-07 13:18 | 37.43879 | -110.39397 | 35148 ft | 440 kts | 68° |
| 2026-05-07 13:19 | 37.45786 | -110.32068 | 35152 ft | 440 kts | 68° |
| 2026-05-07 13:19 | 37.47686 | -110.24741 | 35155 ft | 440 kts | 68° |
| 2026-05-07 13:20 | 37.49583 | -110.17409 | 35137 ft | 441 kts | 68° |
| 2026-05-07 13:20 | 37.51475 | -110.10073 | 35145 ft | 441 kts | 68° |
| 2026-05-07 13:21 | 37.53364 | -110.02726 | 35152 ft | 441 kts | 68° |
| 2026-05-07 13:21 | 37.55250 | -109.95369 | 35142 ft | 441 kts | 68° |
| 2026-05-07 13:22 | 37.56815 | -109.89250 | 35150 ft | 441 kts | 68° |
| 2026-05-07 13:22 | 37.58694 | -109.81881 | 35141 ft | 441 kts | 68° |
| 2026-05-07 13:23 | 37.60570 | -109.74503 | 35158 ft | 442 kts | 68° |
| 2026-05-07 13:23 | 37.62442 | -109.67119 | 35238 ft | 442 kts | 68° |
| 2026-05-07 13:24 | 37.64318 | -109.59699 | 35254 ft | 443 kts | 69° |
| 2026-05-07 13:24 | 37.66178 | -109.52315 | 35258 ft | 444 kts | 69° |
| 2026-05-07 13:25 | 37.68050 | -109.44867 | 35264 ft | 444 kts | 69° |
| 2026-05-07 13:25 | 37.69920 | -109.37401 | 35238 ft | 445 kts | 69° |
| 2026-05-07 13:26 | 37.71773 | -109.29981 | 35234 ft | 446 kts | 69° |
| 2026-05-07 13:26 | 37.73639 | -109.22486 | 35211 ft | 446 kts | 69° |
| 2026-05-07 13:27 | 37.75500 | -109.14987 | 35193 ft | 447 kts | 69° |
| 2026-05-07 13:27 | 37.77347 | -109.07525 | 35189 ft | 448 kts | 69° |
| 2026-05-07 13:28 | 37.79204 | -109.00000 | 35192 ft | 449 kts | 68° |
| 2026-05-07 13:28 | 37.81059 | -108.92462 | 35202 ft | 449 kts | 68° |
| 2026-05-07 13:29 | 37.83107 | -108.85012 | 35200 ft | 448 kts | 65° |
| 2026-05-07 13:29 | 37.85276 | -108.77620 | 35216 ft | 448 kts | 65° |
| 2026-05-07 13:30 | 37.87435 | -108.70191 | 35207 ft | 449 kts | 65° |
| 2026-05-07 13:30 | 37.89569 | -108.62727 | 35209 ft | 451 kts | 66° |
| 2026-05-07 13:31 | 37.91674 | -108.55301 | 35203 ft | 451 kts | 66° |
| 2026-05-07 13:31 | 37.93692 | -108.48151 | 35195 ft | 451 kts | 66° |
| 2026-05-07 13:32 | 37.95802 | -108.40657 | 35200 ft | 451 kts | 66° |
| 2026-05-07 13:32 | 37.97910 | -108.33150 | 35195 ft | 452 kts | 66° |
| 2026-05-07 13:33 | 38.00017 | -108.25628 | 35196 ft | 452 kts | 66° |
| 2026-05-07 13:33 | 38.02119 | -108.18105 | 35194 ft | 452 kts | 66° |
| 2026-05-07 13:34 | 38.05246 | -108.06867 | 35186 ft | 452 kts | 66° |
| 2026-05-07 13:35 | 38.07336 | -107.99331 | 35198 ft | 452 kts | 66° |
| 2026-05-07 13:35 | 38.09409 | -107.91837 | 35196 ft | 452 kts | 66° |
| 2026-05-07 13:36 | 38.11495 | -107.84272 | 35201 ft | 452 kts | 66° |
| 2026-05-07 13:36 | 38.13556 | -107.76777 | 35204 ft | 452 kts | 66° |
| 2026-05-07 13:37 | 38.15629 | -107.69215 | 35226 ft | 452 kts | 66° |
| 2026-05-07 13:37 | 38.17696 | -107.61653 | 35223 ft | 452 kts | 66° |
| 2026-05-07 13:38 | 38.19745 | -107.54136 | 35243 ft | 453 kts | 66° |
| 2026-05-07 13:38 | 38.21804 | -107.46558 | 35256 ft | 453 kts | 66° |
| 2026-05-07 13:39 | 38.23857 | -107.38984 | 35284 ft | 453 kts | 66° |
| 2026-05-07 13:39 | 38.25909 | -107.31388 | 35294 ft | 454 kts | 66° |
| 2026-05-07 13:40 | 38.27956 | -107.23788 | 35286 ft | 454 kts | 66° |
| 2026-05-07 13:40 | 38.29991 | -107.16213 | 35322 ft | 455 kts | 66° |
| 2026-05-07 13:41 | 38.32033 | -107.08589 | 35344 ft | 455 kts | 66° |
| 2026-05-07 13:41 | 38.34073 | -107.00949 | 35356 ft | 456 kts | 66° |
| 2026-05-07 13:42 | 38.36112 | -106.93290 | 35355 ft | 457 kts | 66° |
| 2026-05-07 13:42 | 38.38152 | -106.85604 | 35350 ft | 458 kts | 66° |
| 2026-05-07 13:43 | 38.40190 | -106.77901 | 35345 ft | 459 kts | 66° |
| 2026-05-07 13:43 | 38.42224 | -106.70186 | 35350 ft | 459 kts | 66° |
| 2026-05-07 13:44 | 38.44258 | -106.62454 | 35339 ft | 460 kts | 66° |
| 2026-05-07 13:44 | 38.46289 | -106.54706 | 35338 ft | 461 kts | 66° |
| 2026-05-07 13:45 | 38.48317 | -106.46946 | 35319 ft | 461 kts | 66° |
| 2026-05-07 13:45 | 38.50343 | -106.39171 | 35310 ft | 462 kts | 66° |
| 2026-05-07 13:46 | 38.52370 | -106.31370 | 35285 ft | 464 kts | 66° |
| 2026-05-07 13:46 | 38.54397 | -106.23542 | 35279 ft | 464 kts | 66° |
| 2026-05-07 13:47 | 38.56404 | -106.15765 | 35290 ft | 464 kts | 66° |
| 2026-05-07 13:47 | 38.58424 | -106.07916 | 35289 ft | 465 kts | 66° |
| 2026-05-07 13:48 | 38.60443 | -106.00047 | 35284 ft | 466 kts | 66° |
| 2026-05-07 13:48 | 38.62465 | -105.92141 | 35194 ft | 469 kts | 66° |
| 2026-05-07 13:49 | 38.64488 | -105.84204 | 35200 ft | 471 kts | 66° |
| 2026-05-07 13:49 | 38.66515 | -105.76224 | 35155 ft | 472 kts | 66° |
| 2026-05-07 13:50 | 38.68542 | -105.68217 | 35154 ft | 474 kts | 67° |
| 2026-05-07 13:50 | 38.70570 | -105.60182 | 35117 ft | 475 kts | 67° |
| 2026-05-07 13:51 | 38.72594 | -105.52136 | 35112 ft | 475 kts | 67° |
| 2026-05-07 13:51 | 38.74611 | -105.44091 | 35055 ft | 474 kts | 68° |
| 2026-05-07 13:52 | 38.76615 | -105.36068 | 35063 ft | 472 kts | 68° |
| 2026-05-07 13:52 | 38.78608 | -105.28066 | 35024 ft | 470 kts | 68° |
| 2026-05-07 13:53 | 38.80588 | -105.20093 | 35016 ft | 469 kts | 68° |
| 2026-05-07 13:53 | 38.82559 | -105.12129 | 34999 ft | 468 kts | 68° |
| 2026-05-07 13:54 | 38.84522 | -105.04170 | 34984 ft | 468 kts | 68° |
| 2026-05-07 13:54 | 38.86478 | -104.96213 | 35097 ft | 467 kts | 68° |
| 2026-05-07 13:55 | 38.88425 | -104.88270 | 35139 ft | 466 kts | 68° |
| 2026-05-07 13:55 | 38.90371 | -104.80328 | 35148 ft | 467 kts | 68° |
| 2026-05-07 13:56 | 38.92294 | -104.72407 | 35149 ft | 469 kts | 68° |
| 2026-05-07 13:56 | 38.94237 | -104.64390 | 35169 ft | 471 kts | 68° |
| 2026-05-07 13:57 | 38.96220 | -104.56349 | 35163 ft | 473 kts | 68° |
| 2026-05-07 13:57 | 38.98244 | -104.48301 | 35170 ft | 474 kts | 68° |
| 2026-05-07 13:58 | 39.00270 | -104.40219 | 35160 ft | 476 kts | 68° |
| 2026-05-07 13:58 | 39.02288 | -104.32113 | 35153 ft | 476 kts | 68° |
| 2026-05-07 13:59 | 39.04297 | -104.23995 | 35137 ft | 476 kts | 68° |
| 2026-05-07 13:59 | 39.06301 | -104.15870 | 35125 ft | 477 kts | 68° |
| 2026-05-07 14:00 | 39.08300 | -104.07740 | 35115 ft | 476 kts | 68° |
| 2026-05-07 14:00 | 39.10292 | -103.99613 | 35105 ft | 476 kts | 68° |
| 2026-05-07 14:01 | 39.12278 | -103.91482 | 35104 ft | 475 kts | 68° |
| 2026-05-07 14:01 | 39.14254 | -103.83362 | 35116 ft | 475 kts | 68° |
| 2026-05-07 14:02 | 39.16229 | -103.75223 | 35109 ft | 476 kts | 68° |
| 2026-05-07 14:02 | 39.18201 | -103.67067 | 35107 ft | 477 kts | 68° |
| 2026-05-07 14:03 | 39.20173 | -103.58884 | 35102 ft | 479 kts | 68° |
| 2026-05-07 14:03 | 39.22143 | -103.50678 | 35104 ft | 480 kts | 68° |
| 2026-05-07 14:04 | 39.24115 | -103.42435 | 35108 ft | 482 kts | 68° |
| 2026-05-07 14:04 | 39.26087 | -103.34163 | 35120 ft | 483 kts | 68° |
| 2026-05-07 14:05 | 39.28063 | -103.25849 | 35088 ft | 485 kts | 68° |
| 2026-05-07 14:05 | 39.30036 | -103.17513 | 35061 ft | 486 kts | 69° |
| 2026-05-07 14:06 | 39.32008 | -103.09148 | 35062 ft | 488 kts | 69° |
| 2026-05-07 14:06 | 39.33978 | -103.00768 | 35053 ft | 488 kts | 69° |
| 2026-05-07 14:07 | 39.35943 | -102.92373 | 35043 ft | 488 kts | 69° |
| 2026-05-07 14:07 | 39.37891 | -102.84023 | 35030 ft | 488 kts | 69° |
| 2026-05-07 14:08 | 39.39846 | -102.75614 | 35030 ft | 488 kts | 69° |
| 2026-05-07 14:08 | 39.41795 | -102.67200 | 35018 ft | 488 kts | 69° |
| 2026-05-07 14:09 | 39.43737 | -102.58786 | 34997 ft | 489 kts | 69° |
| 2026-05-07 14:09 | 39.45675 | -102.50357 | 34998 ft | 488 kts | 69° |
| 2026-05-07 14:10 | 39.47605 | -102.41932 | 34990 ft | 489 kts | 69° |
| 2026-05-07 14:10 | 39.49531 | -102.33493 | 34999 ft | 489 kts | 69° |
| 2026-05-07 14:11 | 39.51141 | -102.26415 | 35001 ft | 489 kts | 69° |
| 2026-05-07 14:11 | 39.53058 | -102.17958 | 34994 ft | 489 kts | 69° |
| 2026-05-07 14:12 | 39.54957 | -102.09550 | 34996 ft | 490 kts | 69° |
| 2026-05-07 14:12 | 39.56863 | -102.01076 | 35012 ft | 490 kts | 70° |
| 2026-05-07 14:13 | 39.58766 | -101.92585 | 35007 ft | 491 kts | 70° |
| 2026-05-07 14:13 | 39.60663 | -101.84088 | 35012 ft | 491 kts | 70° |
| 2026-05-07 14:14 | 39.62555 | -101.75581 | 35015 ft | 491 kts | 70° |
| 2026-05-07 14:14 | 39.64442 | -101.67065 | 35029 ft | 491 kts | 70° |
| 2026-05-07 14:15 | 39.66326 | -101.58531 | 35009 ft | 492 kts | 70° |
| 2026-05-07 14:15 | 39.68204 | -101.49987 | 35029 ft | 493 kts | 70° |
| 2026-05-07 14:16 | 39.70081 | -101.41419 | 35001 ft | 494 kts | 70° |
| 2026-05-07 14:16 | 39.71952 | -101.32840 | 34992 ft | 494 kts | 70° |
| 2026-05-07 14:17 | 39.73818 | -101.24255 | 35034 ft | 494 kts | 70° |
| 2026-05-07 14:17 | 39.75679 | -101.15656 | 35048 ft | 494 kts | 70° |
| 2026-05-07 14:18 | 39.77532 | -101.07062 | 35058 ft | 494 kts | 70° |
| 2026-05-07 14:18 | 39.79378 | -100.98464 | 35054 ft | 494 kts | 70° |
| 2026-05-07 14:19 | 39.81218 | -100.89861 | 35047 ft | 493 kts | 70° |
| 2026-05-07 14:19 | 39.83037 | -100.81322 | 35033 ft | 493 kts | 70° |
| 2026-05-07 14:20 | 39.84873 | -100.72668 | 34989 ft | 493 kts | 70° |
| 2026-05-07 14:20 | 39.86678 | -100.64131 | 34989 ft | 493 kts | 70° |
| 2026-05-07 14:21 | 39.88488 | -100.55529 | 35007 ft | 492 kts | 70° |
| 2026-05-07 14:21 | 39.90292 | -100.46924 | 34994 ft | 493 kts | 70° |
| 2026-05-07 14:22 | 39.92093 | -100.38300 | 34989 ft | 493 kts | 71° |
| 2026-05-07 14:22 | 39.93888 | -100.29669 | 34990 ft | 494 kts | 71° |
| 2026-05-07 14:23 | 39.95677 | -100.21027 | 34982 ft | 494 kts | 71° |
| 2026-05-07 14:23 | 39.97464 | -100.12363 | 34987 ft | 495 kts | 71° |
| 2026-05-07 14:24 | 39.99248 | -100.03682 | 34985 ft | 496 kts | 71° |
| 2026-05-07 14:24 | 40.01291 | -99.95120 | 34993 ft | 492 kts | 64° |
| 2026-05-07 14:25 | 40.03824 | -99.86830 | 34975 ft | 492 kts | 63° |
| 2026-05-07 14:25 | 40.06405 | -99.78558 | 35023 ft | 493 kts | 63° |
| 2026-05-07 14:26 | 40.08941 | -99.70219 | 34986 ft | 494 kts | 63° |
| 2026-05-07 14:26 | 40.11440 | -99.61847 | 34983 ft | 495 kts | 64° |
| 2026-05-07 14:27 | 40.13907 | -99.53519 | 34981 ft | 495 kts | 64° |
| 2026-05-07 14:27 | 40.16403 | -99.45076 | 35000 ft | 494 kts | 64° |
| 2026-05-07 14:28 | 40.18861 | -99.36743 | 34973 ft | 495 kts | 64° |
| 2026-05-07 14:28 | 40.21331 | -99.28343 | 34967 ft | 495 kts | 64° |
| 2026-05-07 14:29 | 40.23794 | -99.19943 | 34966 ft | 494 kts | 64° |
| 2026-05-07 14:29 | 40.26250 | -99.11539 | 34966 ft | 494 kts | 64° |
| 2026-05-07 14:30 | 40.28703 | -99.03122 | 34973 ft | 495 kts | 64° |
| 2026-05-07 14:30 | 40.31150 | -98.94696 | 34974 ft | 495 kts | 64° |
| 2026-05-07 14:31 | 40.33592 | -98.86258 | 34968 ft | 495 kts | 64° |
| 2026-05-07 14:31 | 40.36029 | -98.77810 | 34975 ft | 496 kts | 64° |
| 2026-05-07 14:32 | 40.38462 | -98.69349 | 34989 ft | 496 kts | 65° |
| 2026-05-07 14:32 | 40.40892 | -98.60874 | 34982 ft | 497 kts | 65° |
| 2026-05-07 14:33 | 40.43319 | -98.52379 | 34969 ft | 497 kts | 65° |
| 2026-05-07 14:33 | 40.45741 | -98.43872 | 34972 ft | 497 kts | 65° |
| 2026-05-07 14:34 | 40.48158 | -98.35355 | 34965 ft | 498 kts | 65° |
| 2026-05-07 14:34 | 40.50571 | -98.26828 | 34971 ft | 498 kts | 65° |
| 2026-05-07 14:35 | 40.52981 | -98.18280 | 34963 ft | 499 kts | 65° |
| 2026-05-07 14:35 | 40.55383 | -98.09729 | 34966 ft | 499 kts | 65° |
| 2026-05-07 14:36 | 40.57781 | -98.01166 | 34970 ft | 499 kts | 65° |
| 2026-05-07 14:36 | 40.60158 | -97.92652 | 34978 ft | 500 kts | 66° |
| 2026-05-07 14:37 | 40.62548 | -97.84062 | 34979 ft | 500 kts | 66° |
| 2026-05-07 14:37 | 40.66118 | -97.71173 | 34991 ft | 500 kts | 66° |
| 2026-05-07 14:38 | 40.68491 | -97.62570 | 34978 ft | 499 kts | 66° |
| 2026-05-07 14:38 | 40.70856 | -97.53968 | 34986 ft | 499 kts | 66° |
| 2026-05-07 14:39 | 40.73210 | -97.45374 | 34978 ft | 498 kts | 66° |
| 2026-05-07 14:39 | 40.75553 | -97.36791 | 34980 ft | 497 kts | 66° |
| 2026-05-07 14:40 | 40.77887 | -97.28216 | 34977 ft | 496 kts | 66° |
| 2026-05-07 14:40 | 40.80209 | -97.19651 | 34980 ft | 496 kts | 66° |
| 2026-05-07 14:41 | 40.82525 | -97.11083 | 34985 ft | 495 kts | 66° |
| 2026-05-07 14:41 | 40.84835 | -97.02506 | 34989 ft | 496 kts | 66° |
| 2026-05-07 14:42 | 40.87124 | -96.93977 | 34988 ft | 496 kts | 66° |
| 2026-05-07 14:42 | 40.89438 | -96.85322 | 34994 ft | 497 kts | 66° |
| 2026-05-07 14:43 | 40.91722 | -96.76759 | 34993 ft | 498 kts | 67° |
| 2026-05-07 14:43 | 40.93965 | -96.68083 | 35026 ft | 500 kts | 68° |
| 2026-05-07 14:44 | 40.96100 | -96.59316 | 34994 ft | 501 kts | 68° |
| 2026-05-07 14:44 | 40.98225 | -96.50531 | 34979 ft | 502 kts | 68° |
| 2026-05-07 14:45 | 41.00362 | -96.41742 | 34982 ft | 502 kts | 68° |
| 2026-05-07 14:45 | 41.02503 | -96.32944 | 34978 ft | 502 kts | 68° |
| 2026-05-07 14:46 | 41.04639 | -96.24133 | 34974 ft | 502 kts | 68° |
| 2026-05-07 14:46 | 41.06767 | -96.15316 | 34973 ft | 502 kts | 68° |
| 2026-05-07 14:47 | 41.08887 | -96.06496 | 34990 ft | 502 kts | 68° |
| 2026-05-07 14:47 | 41.11004 | -95.97658 | 34979 ft | 503 kts | 68° |
| 2026-05-07 14:48 | 41.13114 | -95.88815 | 34974 ft | 503 kts | 68° |
| 2026-05-07 14:48 | 41.15218 | -95.79963 | 34973 ft | 503 kts | 68° |
| 2026-05-07 14:49 | 41.17203 | -95.71037 | 34972 ft | 506 kts | 74° |
| 2026-05-07 14:49 | 41.18516 | -95.61831 | 34989 ft | 509 kts | 77° |
| 2026-05-07 14:50 | 41.19679 | -95.52596 | 34991 ft | 510 kts | 77° |
| 2026-05-07 14:50 | 41.20891 | -95.43315 | 34986 ft | 510 kts | 76° |
| 2026-05-07 14:51 | 41.22146 | -95.34031 | 34989 ft | 511 kts | 76° |
| 2026-05-07 14:51 | 41.23413 | -95.24717 | 34992 ft | 513 kts | 76° |
| 2026-05-07 14:52 | 41.24666 | -95.15429 | 34981 ft | 514 kts | 76° |
| 2026-05-07 14:52 | 41.25918 | -95.06066 | 34977 ft | 515 kts | 76° |
| 2026-05-07 14:53 | 41.27162 | -94.96690 | 34975 ft | 515 kts | 76° |
| 2026-05-07 14:53 | 41.28399 | -94.87303 | 34979 ft | 516 kts | 76° |
| 2026-05-07 14:54 | 41.29632 | -94.77890 | 34983 ft | 517 kts | 76° |
| 2026-05-07 14:54 | 41.30859 | -94.68462 | 34989 ft | 517 kts | 76° |
| 2026-05-07 14:55 | 41.32078 | -94.59032 | 34990 ft | 517 kts | 76° |
| 2026-05-07 14:55 | 41.33290 | -94.49588 | 34992 ft | 518 kts | 76° |
| 2026-05-07 14:56 | 41.34496 | -94.40137 | 34990 ft | 518 kts | 76° |
| 2026-05-07 14:56 | 41.35693 | -94.30683 | 34985 ft | 518 kts | 76° |
| 2026-05-07 14:57 | 41.36874 | -94.21296 | 34987 ft | 518 kts | 76° |
| 2026-05-07 14:57 | 41.38056 | -94.11836 | 34989 ft | 519 kts | 76° |
| 2026-05-07 14:58 | 41.39232 | -94.02365 | 34991 ft | 518 kts | 76° |
| 2026-05-07 14:58 | 41.40399 | -93.92890 | 34989 ft | 518 kts | 76° |
| 2026-05-07 14:59 | 41.41559 | -93.83410 | 34998 ft | 518 kts | 76° |
| 2026-05-07 14:59 | 41.42545 | -93.75299 | 34999 ft | 519 kts | 76° |
| 2026-05-07 15:00 | 41.43501 | -93.67397 | 35003 ft | 519 kts | 75° |
| 2026-05-07 15:00 | 41.45291 | -93.58165 | 35016 ft | 510 kts | 65° |
| 2026-05-07 15:01 | 41.47614 | -93.49234 | 35000 ft | 510 kts | 64° |
| 2026-05-07 15:01 | 41.49893 | -93.40463 | 34993 ft | 511 kts | 64° |
| 2026-05-07 15:02 | 41.52156 | -93.31468 | 35029 ft | 512 kts | 65° |
| 2026-05-07 15:02 | 41.54393 | -93.22418 | 35012 ft | 513 kts | 65° |
| 2026-05-07 15:03 | 41.56617 | -93.13362 | 35005 ft | 513 kts | 65° |
| 2026-05-07 15:03 | 41.58840 | -93.04292 | 35048 ft | 513 kts | 65° |
| 2026-05-07 15:04 | 41.60858 | -92.96040 | 35015 ft | 514 kts | 65° |
| 2026-05-07 15:04 | 41.63055 | -92.87020 | 35010 ft | 514 kts | 65° |
| 2026-05-07 15:05 | 41.65246 | -92.77992 | 35024 ft | 514 kts | 65° |
| 2026-05-07 15:05 | 41.67361 | -92.69243 | 35029 ft | 513 kts | 65° |
| 2026-05-07 15:06 | 41.69477 | -92.60455 | 35025 ft | 514 kts | 66° |
| 2026-05-07 15:06 | 41.71450 | -92.52233 | 35023 ft | 514 kts | 66° |
| 2026-05-07 15:07 | 41.73585 | -92.43302 | 35008 ft | 515 kts | 66° |
| 2026-05-07 15:07 | 41.75520 | -92.35172 | 35041 ft | 515 kts | 66° |
| 2026-05-07 15:08 | 41.77699 | -92.25992 | 35011 ft | 518 kts | 66° |
| 2026-05-07 15:08 | 41.79878 | -92.16771 | 34993 ft | 518 kts | 66° |
| 2026-05-07 15:09 | 41.82046 | -92.07552 | 34983 ft | 518 kts | 66° |
| 2026-05-07 15:09 | 41.84199 | -91.98363 | 34989 ft | 518 kts | 66° |
| 2026-05-07 15:10 | 41.86351 | -91.89144 | 34994 ft | 518 kts | 67° |
| 2026-05-07 15:10 | 41.88413 | -91.80125 | 34950 ft | 521 kts | 71° |
| 2026-05-07 15:11 | 41.89088 | -91.75327 | 34936 ft | 527 kts | 82° |
| 2026-05-07 15:11 | 41.89339 | -91.70422 | 34970 ft | 527 kts | 84° |
| 2026-05-07 15:11 | 41.89671 | -91.60580 | 34958 ft | 528 kts | 84° |
| 2026-05-07 15:12 | 41.89989 | -91.51244 | 34995 ft | 528 kts | 84° |
| 2026-05-07 15:12 | 41.90375 | -91.41395 | 34985 ft | 528 kts | 84° |
| 2026-05-07 15:13 | 41.90777 | -91.31604 | 35004 ft | 528 kts | 84° |
| 2026-05-07 15:13 | 41.91175 | -91.21757 | 35019 ft | 528 kts | 84° |
| 2026-05-07 15:14 | 41.91550 | -91.12198 | 35023 ft | 527 kts | 84° |
| 2026-05-07 15:14 | 41.91924 | -91.02379 | 35024 ft | 527 kts | 84° |
| 2026-05-07 15:15 | 41.92290 | -90.92550 | 35013 ft | 527 kts | 84° |
| 2026-05-07 15:15 | 41.92648 | -90.82713 | 35014 ft | 527 kts | 84° |
| 2026-05-07 15:16 | 41.92996 | -90.72947 | 35028 ft | 526 kts | 85° |
| 2026-05-07 15:16 | 41.93337 | -90.63117 | 35007 ft | 526 kts | 85° |
| 2026-05-07 15:17 | 41.93669 | -90.53304 | 35009 ft | 526 kts | 85° |
| 2026-05-07 15:17 | 41.93993 | -90.43496 | 35004 ft | 525 kts | 85° |
| 2026-05-07 15:18 | 41.94309 | -90.33665 | 35007 ft | 525 kts | 85° |
| 2026-05-07 15:18 | 41.94616 | -90.23862 | 35003 ft | 525 kts | 86° |
| 2026-05-07 15:19 | 41.94913 | -90.14090 | 35012 ft | 526 kts | 86° |
| 2026-05-07 15:19 | 41.95190 | -90.04732 | 35011 ft | 526 kts | 86° |
| 2026-05-07 15:20 | 41.95473 | -89.94903 | 35030 ft | 527 kts | 86° |
| 2026-05-07 15:20 | 41.95748 | -89.85067 | 35022 ft | 527 kts | 86° |
| 2026-05-07 15:21 | 41.96014 | -89.75222 | 35025 ft | 527 kts | 86° |
| 2026-05-07 15:21 | 41.96273 | -89.65361 | 35024 ft | 528 kts | 86° |
| 2026-05-07 15:22 | 41.96522 | -89.55566 | 35025 ft | 528 kts | 86° |
| 2026-05-07 15:22 | 41.96733 | -89.45701 | 35028 ft | 528 kts | 87° |
| 2026-05-07 15:23 | 41.96862 | -89.35829 | 35038 ft | 528 kts | 88° |
| 2026-05-07 15:23 | 41.96976 | -89.25955 | 35031 ft | 528 kts | 88° |
| 2026-05-07 15:24 | 41.97094 | -89.16088 | 35040 ft | 528 kts | 88° |
| 2026-05-07 15:24 | 41.97209 | -89.06219 | 35044 ft | 528 kts | 88° |
| 2026-05-07 15:25 | 41.97317 | -88.96358 | 35045 ft | 527 kts | 88° |
| 2026-05-07 15:25 | 41.97416 | -88.86504 | 35039 ft | 527 kts | 88° |
| 2026-05-07 15:26 | 41.97505 | -88.76667 | 35035 ft | 526 kts | 89° |
| 2026-05-07 15:26 | 41.97586 | -88.66836 | 35038 ft | 526 kts | 89° |
| 2026-05-07 15:27 | 41.97659 | -88.57009 | 35037 ft | 526 kts | 89° |
| 2026-05-07 15:27 | 41.97723 | -88.47191 | 35090 ft | 525 kts | 89° |
| 2026-05-07 15:28 | 41.97779 | -88.37368 | 35049 ft | 526 kts | 89° |
| 2026-05-07 15:28 | 41.97827 | -88.27553 | 35045 ft | 525 kts | 89° |
| 2026-05-07 15:29 | 41.97866 | -88.17747 | 35041 ft | 524 kts | 89° |
| 2026-05-07 15:29 | 41.97896 | -88.07972 | 35043 ft | 523 kts | 90° |
| 2026-05-07 15:30 | 41.97919 | -87.98201 | 35042 ft | 522 kts | 90° |
| 2026-05-07 15:30 | 41.97933 | -87.88447 | 35047 ft | 522 kts | 90° |
| 2026-05-07 15:31 | 41.97939 | -87.78696 | 35050 ft | 522 kts | 90° |
| 2026-05-07 15:31 | 41.97937 | -87.68934 | 35057 ft | 523 kts | 90° |
| 2026-05-07 15:32 | 41.97926 | -87.59148 | 35057 ft | 524 kts | 90° |
| 2026-05-07 15:32 | 41.97908 | -87.49360 | 35065 ft | 524 kts | 90° |
| 2026-05-07 15:33 | 41.98106 | -87.39618 | 35064 ft | 525 kts | 85° |
| 2026-05-07 15:33 | 41.98789 | -87.29834 | 35066 ft | 526 kts | 84° |
| 2026-05-07 15:34 | 41.99505 | -87.20036 | 35068 ft | 527 kts | 84° |
| 2026-05-07 15:34 | 42.00136 | -87.10211 | 35070 ft | 528 kts | 85° |
| 2026-05-07 15:35 | 42.00718 | -87.00363 | 35075 ft | 529 kts | 85° |
| 2026-05-07 15:35 | 42.01289 | -86.90501 | 35063 ft | 529 kts | 85° |
| 2026-05-07 15:36 | 42.01857 | -86.80636 | 35074 ft | 529 kts | 85° |
| 2026-05-07 15:36 | 42.02420 | -86.70760 | 35069 ft | 530 kts | 86° |
| 2026-05-07 15:37 | 42.02974 | -86.60881 | 35067 ft | 530 kts | 86° |
| 2026-05-07 15:37 | 42.03520 | -86.50994 | 35052 ft | 530 kts | 86° |
| 2026-05-07 15:38 | 42.04058 | -86.41101 | 35067 ft | 530 kts | 86° |
| 2026-05-07 15:38 | 42.04588 | -86.31200 | 35067 ft | 531 kts | 86° |
| 2026-05-07 15:39 | 42.05110 | -86.21290 | 35064 ft | 531 kts | 86° |
| 2026-05-07 15:39 | 42.05561 | -86.11366 | 34986 ft | 533 kts | 90° |
| 2026-05-07 15:40 | 42.05483 | -86.06339 | 34380 ft | 541 kts | 95° |
| 2026-05-07 15:40 | 42.05221 | -86.01282 | 33660 ft | 542 kts | 97° |
| 2026-05-07 15:40 | 42.04898 | -85.96228 | 32883 ft | 543 kts | 97° |
| 2026-05-07 15:40 | 42.04588 | -85.91165 | 32140 ft | 543 kts | 97° |
| 2026-05-07 15:41 | 42.04316 | -85.86163 | 31394 ft | 544 kts | 96° |
| 2026-05-07 15:41 | 42.04073 | -85.81081 | 30618 ft | 545 kts | 96° |
| 2026-05-07 15:41 | 42.03848 | -85.75940 | 30016 ft | 541 kts | 96° |
| 2026-05-07 15:41 | 42.03635 | -85.70973 | 29364 ft | 537 kts | 96° |
| 2026-05-07 15:42 | 42.03416 | -85.65983 | 28784 ft | 531 kts | 96° |
| 2026-05-07 15:42 | 42.03194 | -85.61061 | 28236 ft | 524 kts | 96° |
| 2026-05-07 15:42 | 42.02969 | -85.56189 | 27691 ft | 518 kts | 96° |
| 2026-05-07 15:42 | 42.02746 | -85.51381 | 27148 ft | 513 kts | 96° |
| 2026-05-07 15:43 | 42.02532 | -85.46619 | 26617 ft | 507 kts | 96° |
| 2026-05-07 15:43 | 42.02322 | -85.41902 | 26075 ft | 502 kts | 96° |
| 2026-05-07 15:43 | 42.02114 | -85.37244 | 25556 ft | 497 kts | 96° |
| 2026-05-07 15:43 | 42.01906 | -85.32631 | 25046 ft | 492 kts | 96° |
| 2026-05-07 15:44 | 42.01697 | -85.28067 | 24535 ft | 487 kts | 96° |
| 2026-05-07 15:44 | 42.01487 | -85.23549 | 24032 ft | 482 kts | 96° |
| 2026-05-07 15:44 | 42.01277 | -85.19071 | 23513 ft | 477 kts | 96° |
| 2026-05-07 15:44 | 42.01068 | -85.14635 | 22920 ft | 473 kts | 96° |
| 2026-05-07 15:45 | 42.00860 | -85.10256 | 22407 ft | 466 kts | 96° |
| 2026-05-07 15:45 | 42.00653 | -85.05939 | 21910 ft | 460 kts | 96° |
| 2026-05-07 15:45 | 42.00441 | -85.01681 | 21425 ft | 454 kts | 96° |
| 2026-05-07 15:45 | 42.00227 | -84.97477 | 20932 ft | 448 kts | 96° |
| 2026-05-07 15:46 | 41.99799 | -84.89202 | 19955 ft | 439 kts | 96° |
| 2026-05-07 15:46 | 41.99588 | -84.85128 | 19472 ft | 434 kts | 96° |
| 2026-05-07 15:46 | 41.99379 | -84.81102 | 18998 ft | 430 kts | 96° |
| 2026-05-07 15:47 | 41.99242 | -84.78471 | 18891 ft | 421 kts | 96° |
| 2026-05-07 15:47 | 41.99043 | -84.74604 | 18734 ft | 409 kts | 96° |
| 2026-05-07 15:47 | 41.98847 | -84.70821 | 18600 ft | 403 kts | 96° |
| 2026-05-07 15:47 | 41.98650 | -84.67069 | 18467 ft | 403 kts | 96° |
| 2026-05-07 15:48 | 41.98451 | -84.63296 | 18327 ft | 406 kts | 96° |
| 2026-05-07 15:48 | 41.98250 | -84.59509 | 18170 ft | 405 kts | 96° |
| 2026-05-07 15:48 | 41.98049 | -84.55743 | 18012 ft | 403 kts | 96° |
| 2026-05-07 15:48 | 41.97847 | -84.51998 | 17870 ft | 401 kts | 96° |
| 2026-05-07 15:49 | 41.97643 | -84.48267 | 17720 ft | 400 kts | 96° |
| 2026-05-07 15:49 | 41.97438 | -84.44546 | 17576 ft | 398 kts | 96° |
| 2026-05-07 15:49 | 41.97233 | -84.40841 | 17435 ft | 397 kts | 96° |
| 2026-05-07 15:49 | 41.97029 | -84.37145 | 17286 ft | 396 kts | 96° |
| 2026-05-07 15:50 | 41.96823 | -84.33453 | 17140 ft | 396 kts | 96° |
| 2026-05-07 15:50 | 41.96628 | -84.29764 | 17005 ft | 396 kts | 94° |
| 2026-05-07 15:50 | 41.96754 | -84.26054 | 16687 ft | 401 kts | 83° |
| 2026-05-07 15:50 | 41.97150 | -84.22338 | 16405 ft | 401 kts | 81° |
| 2026-05-07 15:51 | 41.97591 | -84.18666 | 16109 ft | 397 kts | 81° |
| 2026-05-07 15:51 | 41.97995 | -84.15012 | 15822 ft | 393 kts | 82° |
| 2026-05-07 15:51 | 41.98351 | -84.11391 | 15543 ft | 389 kts | 83° |
| 2026-05-07 15:51 | 41.98685 | -84.07805 | 15267 ft | 386 kts | 83° |
| 2026-05-07 15:52 | 41.99179 | -84.04278 | 14988 ft | 383 kts | 73° |
| 2026-05-07 15:52 | 41.99999 | -84.00893 | 14730 ft | 380 kts | 69° |
| 2026-05-07 15:52 | 42.00858 | -83.97543 | 14460 ft | 378 kts | 70° |
| 2026-05-07 15:52 | 42.01665 | -83.94234 | 14194 ft | 377 kts | 71° |
| 2026-05-07 15:53 | 42.02489 | -83.90848 | 13909 ft | 375 kts | 66° |
| 2026-05-07 15:53 | 42.03815 | -83.87934 | 13629 ft | 368 kts | 45° |
| 2026-05-07 15:53 | 42.05554 | -83.85372 | 13371 ft | 365 kts | 43° |
| 2026-05-07 15:53 | 42.07248 | -83.82894 | 13081 ft | 364 kts | 44° |
| 2026-05-07 15:54 | 42.08944 | -83.80381 | 12807 ft | 363 kts | 44° |
| 2026-05-07 15:54 | 42.10624 | -83.77859 | 12539 ft | 359 kts | 44° |
| 2026-05-07 15:54 | 42.12267 | -83.75373 | 12265 ft | 351 kts | 44° |
| 2026-05-07 15:54 | 42.13860 | -83.72921 | 12013 ft | 345 kts | 49° |
| 2026-05-07 15:55 | 42.14994 | -83.70067 | 11521 ft | 350 kts | 71° |
| 2026-05-07 15:55 | 42.15710 | -83.66931 | 11015 ft | 351 kts | 71° |
| 2026-05-07 15:55 | 42.16449 | -83.63789 | 10460 ft | 353 kts | 70° |
| 2026-05-07 15:55 | 42.17218 | -83.60632 | 9905 ft | 355 kts | 70° |
| 2026-05-07 15:56 | 42.17983 | -83.57537 | 9880 ft | 339 kts | 70° |
| 2026-05-07 15:56 | 42.18811 | -83.54651 | 9762 ft | 321 kts | 57° |
| 2026-05-07 15:56 | 42.20219 | -83.52491 | 9624 ft | 296 kts | 35° |
| 2026-05-07 15:56 | 42.21876 | -83.51014 | 9406 ft | 279 kts | 24° |
| 2026-05-07 15:57 | 42.23578 | -83.49792 | 8946 ft | 277 kts | 23° |
| 2026-05-07 15:57 | 42.25284 | -83.48591 | 8507 ft | 276 kts | 24° |
| 2026-05-07 15:57 | 42.26987 | -83.47449 | 8086 ft | 271 kts | 20° |
| 2026-05-07 15:57 | 42.28716 | -83.46448 | 7637 ft | 269 kts | 19° |
| 2026-05-07 15:58 | 42.30447 | -83.45494 | 7209 ft | 267 kts | 18° |
| 2026-05-07 15:58 | 42.32157 | -83.44555 | 6769 ft | 265 kts | 19° |
| 2026-05-07 15:58 | 42.33860 | -83.43616 | 6309 ft | 263 kts | 19° |
| 2026-05-07 15:58 | 42.35501 | -83.42538 | 5829 ft | 264 kts | 33° |
| 2026-05-07 15:59 | 42.36880 | -83.40892 | 5376 ft | 264 kts | 41° |
| 2026-05-07 15:59 | 42.38152 | -83.39055 | 4775 ft | 270 kts | 54° |
| 2026-05-07 15:59 | 42.38795 | -83.36724 | 4567 ft | 265 kts | 85° |
| 2026-05-07 15:59 | 42.38544 | -83.34349 | 4386 ft | 257 kts | 114° |
| 2026-05-07 16:00 | 42.37728 | -83.32226 | 4171 ft | 254 kts | 121° |
| 2026-05-07 16:00 | 42.36824 | -83.30181 | 3899 ft | 252 kts | 127° |
| 2026-05-07 16:00 | 42.35536 | -83.28660 | 3521 ft | 245 kts | 161° |
| 2026-05-07 16:00 | 42.33944 | -83.28512 | 3241 ft | 222 kts | 201° |
| 2026-05-07 16:01 | 42.32590 | -83.29320 | 2958 ft | 207 kts | 210° |
| 2026-05-07 16:01 | 42.31349 | -83.30183 | 2674 ft | 194 kts | 212° |
| 2026-05-07 16:01 | 42.30214 | -83.31017 | 2423 ft | 178 kts | 213° |
| 2026-05-07 16:01 | 42.29165 | -83.31793 | 2195 ft | 163 kts | 212° |
| 2026-05-07 16:02 | 42.28208 | -83.32500 | 1945 ft | 149 kts | 214° |
| 2026-05-07 16:02 | 42.27302 | -83.33173 | 1778 ft | 152 kts | 213° |
| 2026-05-07 16:02 | 42.26383 | -83.33852 | 1534 ft | 149 kts | 214° |
| 2026-05-07 16:02 | 42.25494 | -83.34507 | 1334 ft | 143 kts | 215° |
| 2026-05-07 16:03 | 42.24622 | -83.35170 | 1129 ft | 146 kts | 213° |
| 2026-05-07 16:03 | 42.23717 | -83.35817 | 947 ft | 148 kts | 212° |
| 2026-05-07 16:03 | 42.22807 | -83.36489 | 732 ft | 150 kts | 212° |
| 2026-05-07 16:03 | 42.21919 | -83.37143 | 644 ft | 136 kts | 213° |
| 2026-05-07 16:04 | 42.21217 | -83.37666 | 647 ft | 93 kts | 207° |
| 2026-05-07 16:04 | 42.20812 | -83.37956 | 645 ft | 36 kts | 202° |
| 2026-05-07 16:04 | 42.20620 | -83.37983 | 646 ft | 25 kts | 168° |
| 2026-05-07 16:04 | 42.20485 | -83.37955 | 646 ft | 15 kts | 193° |
| 2026-05-07 16:05 | 42.20392 | -83.38020 | 646 ft | 15 kts | 209° |
| 2026-05-07 16:05 | 42.20304 | -83.38086 | 646 ft | 14 kts | 210° |
| 2026-05-07 16:05 | 42.20220 | -83.38147 | 646 ft | 14 kts | 208° |
| 2026-05-07 16:05 | 42.20133 | -83.38148 | 646 ft | 15 kts | 130° |
| 2026-05-07 16:06 | 42.20071 | -83.38020 | 646 ft | 18 kts | 133° |
| 2026-05-07 16:06 | 42.19962 | -83.37926 | 646 ft | 20 kts | 149° |
| 2026-05-07 16:06 | 42.19844 | -83.37820 | 647 ft | 21 kts | 134° |
| 2026-05-07 16:06 | 42.19771 | -83.37658 | 647 ft | 20 kts | 118° |
| 2026-05-07 16:07 | 42.19706 | -83.37496 | 647 ft | 19 kts | 118° |
| 2026-05-07 16:07 | 42.19642 | -83.37340 | 647 ft | 19 kts | 118° |
| 2026-05-07 16:07 | 42.19589 | -83.37184 | 647 ft | 18 kts | 102° |
| 2026-05-07 16:07 | 42.19616 | -83.37026 | 647 ft | 17 kts | 56° |
| 2026-05-07 16:08 | 42.19712 | -83.36926 | 647 ft | 19 kts | 29° |
| 2026-05-07 16:08 | 42.19842 | -83.36830 | 646 ft | 24 kts | 28° |
| 2026-05-07 16:08 | 42.19985 | -83.36725 | 646 ft | 23 kts | 28° |
| 2026-05-07 16:08 | 42.20122 | -83.36624 | 646 ft | 22 kts | 28° |
| 2026-05-07 16:09 | 42.20249 | -83.36531 | 646 ft | 15 kts | 28° |
| 2026-05-07 16:09 | 42.20325 | -83.36446 | 645 ft | 14 kts | 70° |
| 2026-05-07 16:09 | 42.20362 | -83.36348 | 645 ft | 9 kts | 41° |
| 2026-05-07 16:09 | 42.20411 | -83.36305 | 645 ft | 8 kts | 27° |
| 2026-05-07 16:10 | 42.20470 | -83.36264 | 645 ft | 11 kts | 27° |
| 2026-05-07 16:10 | 42.20477 | -83.36231 | 645 ft | 4 kts | 155° |
| 2026-05-07 16:10 | 42.20454 | -83.36205 | 645 ft | 5 kts | 124° |
| 2026-05-07 16:10 | 42.20441 | -83.36176 | 647 ft | 1 kts | 121° |
| 2026-05-07 16:11 | 42.20436 | -83.36166 | 646 ft | 1 kts | 121° |
| 2026-05-07 16:11 | 42.20435 | -83.36164 | 647 ft | 0 kts | 121° |